Rawlins, WY

1:19 PM MDT on July 27, 2016 (GMT -0600)
Highland Towne | | Change Station

Elev 6831 ft 41.82 °N, 107.22 °W | Updated 14 minutes ago

Clear
Clear
88.0 °F
Feels Like 84 °F
N
4.2
Wind Variable Wind from West

Today
High -- | Low -- °F
--% Chance of Precip.
Yesterday
High -- | Low -- °F
Precip. -- in
Pressure 29.95 in
Visibility 10.0 miles
Clouds Clear
Heat Index 84 °F
Dew Point 39 °F
Humidity 18%
Rainfall 0.00 in
Snow Depth Not available.
5:58 AM 8:31 PM
Last Quarter, 40% visible
METAR KRWL 271853Z AUTO 28014G23KT 10SM CLR 29/M03 A3029 RMK AO2 SLP141 T02941028
Pressure 29.95 in
Visibility 10.0 miles
Clouds Clear
Heat Index 84 °F
Dew Point 39 °F
Humidity 18%
Rainfall 0.00 in
Snow Depth Not available.
5:58 AM 8:31 PM
Last Quarter, 40% visible
METAR KRWL 271853Z AUTO 28014G23KT 10SM CLR 29/M03 A3029 RMK AO2 SLP141 T02941028

10-Day Weather Forecast

Almanac

Astronomy

Jul. 27, 2016 Rise Set
Actual Time
Civil Twilight
Nautical Twilight
Astronomical Twilight
Moon
Length of Visible Light
Length of Day
Tomorrow will be .
, % of the Moon is Illuminated

Today's Extremes

State Highs State Lows

Community

WunderPhotos

Upload Photos

1,927,909 photos uploaded!

WunderBlog® & News

Nearby

Air Quality

  Air Quality AQ Index Pollutant
Not available.

Snow Depth

Station Depth Elevation

Earthquake Activity

City Distance Mag. Time & Date
Minimum magnitude displayed is 2.5.

Coastal Water Temperatures

Place Temperature

Stations

Nearby Weather Stations

Station Location Temp. Windchill Dew Point Humidity Wind Precip. Elev Updated Type
                   

Watches & Warnings

There are currently no watches in effect.